Time;durP1;ratioP1;P1;durP2;ratioP2;P2;SDS_P1;SDS_P2;PMS_P1;PMS_P2;Temp;Humidity;BMP_temperature;BMP_pressure;BME280_temperature;BME280_humidity;BME280_pressure;Samples;Min_cycle;Max_cycle;Signal;HPM_P1;HPM_P2
2022/05/04 00:00:44;;;;;;;10.30;3.35;;;8.40;99.90;;;;;;5031615;28;20068;-63
2022/05/04 00:03:09;;;;;;;10.90;3.30;;;8.40;99.90;;;;;;5032293;28;20049;-64
2022/05/04 00:05:35;;;;;;;8.23;3.17;;;8.40;99.90;;;;;;5031276;28;20394;-63
2022/05/04 00:08:00;;;;;;;10.82;3.67;;;8.40;99.90;;;;;;5032621;28;20059;-65
2022/05/04 00:10:26;;;;;;;13.35;3.60;;;8.40;99.90;;;;;;5032261;28;20072;-63
2022/05/04 00:12:52;;;;;;;9.90;3.42;;;8.40;99.90;;;;;;5030019;28;20108;-64
2022/05/04 00:15:17;;;;;;;8.30;3.15;;;8.40;99.90;;;;;;5032429;28;20049;-63
2022/05/04 00:17:43;;;;;;;13.48;4.68;;;8.40;99.90;;;;;;5034281;28;20054;-63
2022/05/04 00:20:09;;;;;;;8.82;3.40;;;8.40;99.90;;;;;;5031908;28;20108;-61
2022/05/04 00:22:34;;;;;;;8.15;3.53;;;8.40;99.90;;;;;;5034174;28;20053;-63
2022/05/04 00:25:00;;;;;;;8.55;3.83;;;8.40;99.90;;;;;;5033037;28;20061;-65
2022/05/04 00:27:26;;;;;;;7.85;3.50;;;8.30;99.90;;;;;;5032772;28;20099;-65
2022/05/04 00:29:51;;;;;;;10.23;3.40;;;8.30;99.90;;;;;;5033078;28;20091;-64
2022/05/04 00:32:17;;;;;;;8.82;3.47;;;8.30;99.90;;;;;;5032745;28;20049;-63
2022/05/04 00:34:43;;;;;;;7.60;3.17;;;8.30;99.90;;;;;;5033826;28;20133;-64
2022/05/04 00:37:09;;;;;;;6.88;3.38;;;8.30;99.90;;;;;;5032986;28;20057;-63
2022/05/04 00:39:35;;;;;;;15.90;4.05;;;8.20;99.90;;;;;;5032648;28;20077;-64
2022/05/04 00:42:07;;;;;;;8.40;3.50;;;8.20;99.90;;;;;;5032766;28;20072;-63
2022/05/04 00:44:32;;;;;;;9.03;3.00;;;8.20;99.90;;;;;;5033312;28;20061;-64
2022/05/04 00:46:59;;;;;;;11.27;3.40;;;8.20;99.90;;;;;;5032390;28;20049;-62
2022/05/04 00:49:24;;;;;;;10.48;3.67;;;8.20;99.90;;;;;;5032384;28;20057;-64
2022/05/04 00:51:50;;;;;;;12.68;3.25;;;8.20;99.90;;;;;;5032599;28;20119;-64
2022/05/04 00:54:16;;;;;;;9.57;3.35;;;8.20;99.90;;;;;;5032383;28;20060;-62
2022/05/04 00:56:42;;;;;;;4.95;2.60;;;8.20;99.90;;;;;;5034165;28;20061;-63
2022/05/04 00:59:07;;;;;;;8.15;3.35;;;8.10;99.90;;;;;;5032568;28;20132;-63
2022/05/04 01:01:33;;;;;;;15.57;4.00;;;8.10;99.90;;;;;;5031194;28;20060;-64
2022/05/04 01:03:59;;;;;;;7.07;3.40;;;8.20;99.90;;;;;;5032537;28;20045;-65
2022/05/04 01:06:26;;;;;;;9.75;3.05;;;8.10;99.90;;;;;;5029674;28;20478;-63
2022/05/04 01:08:53;;;;;;;12.80;3.40;;;8.10;99.90;;;;;;5031654;28;20493;-62
2022/05/04 01:11:19;;;;;;;7.78;3.72;;;8.10;99.90;;;;;;5029519;28;20148;-65
2022/05/04 01:14:04;;;;;;;6.47;3.25;;;8.10;99.90;;;;;;5032153;28;20457;-63
2022/05/04 01:16:31;;;;;;;8.43;3.38;;;8.00;99.90;;;;;;5031715;28;20124;-64
2022/05/04 01:18:57;;;;;;;10.52;3.72;;;8.00;99.90;;;;;;5031820;28;20129;-64
2022/05/04 01:21:23;;;;;;;8.18;3.65;;;7.90;99.90;;;;;;5029467;28;20558;-63
2022/05/04 01:23:49;;;;;;;11.18;3.58;;;8.00;99.90;;;;;;5032294;28;20435;-63
2022/05/04 01:26:18;;;;;;;10.05;3.50;;;7.90;99.90;;;;;;5030953;28;20120;-62
2022/05/04 01:28:44;;;;;;;7.30;3.20;;;8.00;99.90;;;;;;5031412;28;20064;-63
2022/05/04 01:31:10;;;;;;;9.98;3.67;;;7.90;99.90;;;;;;5026022;28;20085;-64
2022/05/04 01:33:36;;;;;;;10.38;3.72;;;8.00;99.90;;;;;;5028803;28;20476;-62
2022/05/04 01:36:02;;;;;;;12.38;3.50;;;7.90;99.90;;;;;;5031592;28;20050;-64
2022/05/04 01:38:28;;;;;;;9.68;3.30;;;7.90;99.90;;;;;;5030626;28;20382;-63
2022/05/04 01:40:53;;;;;;;6.65;3.30;;;7.90;99.90;;;;;;5030404;28;20061;-63
2022/05/04 01:43:19;;;;;;;7.72;3.50;;;7.90;99.90;;;;;;5028440;28;20191;-64
2022/05/04 01:45:44;;;;;;;7.78;3.05;;;7.90;99.90;;;;;;5028822;28;20049;-64
2022/05/04 01:48:10;;;;;;;8.07;2.95;;;7.90;99.90;;;;;;5030452;28;20057;-63
2022/05/04 01:50:36;;;;;;;10.27;3.78;;;7.90;99.90;;;;;;5029995;28;20053;-64
2022/05/04 01:53:02;;;;;;;5.47;3.28;;;8.00;99.90;;;;;;5030527;28;20132;-63
2022/05/04 01:55:28;;;;;;;9.93;3.35;;;7.90;99.90;;;;;;5029586;28;20045;-62
2022/05/04 01:57:54;;;;;;;9.55;3.67;;;7.90;99.90;;;;;;5031301;28;20148;-63
2022/05/04 02:00:19;;;;;;;12.02;3.60;;;7.90;99.90;;;;;;5029956;28;20076;-62
2022/05/04 02:02:45;;;;;;;6.63;2.97;;;7.90;99.90;;;;;;5031070;28;20084;-62
2022/05/04 02:05:12;;;;;;;8.75;3.53;;;7.90;99.90;;;;;;5030373;28;20053;-64
2022/05/04 02:07:38;;;;;;;15.77;3.78;;;7.90;99.90;;;;;;5031585;28;20121;-64
2022/05/04 02:10:05;;;;;;;10.10;3.45;;;7.90;99.90;;;;;;5031891;28;20057;-64
2022/05/04 02:12:31;;;;;;;7.90;3.33;;;7.90;99.90;;;;;;5041198;28;20107;-64
2022/05/04 02:14:57;;;;;;;8.07;3.33;;;7.90;99.90;;;;;;5030442;28;20419;-62
2022/05/04 02:17:23;;;;;;;8.73;3.25;;;7.90;99.90;;;;;;5029084;28;20163;-63
2022/05/04 02:19:48;;;;;;;10.07;3.47;;;7.80;99.90;;;;;;5029194;28;20124;-63
2022/05/04 02:22:14;;;;;;;12.27;3.33;;;7.80;99.90;;;;;;5031467;28;20057;-63
2022/05/04 02:24:39;;;;;;;10.02;3.60;;;7.70;99.90;;;;;;5030966;28;20050;-63
2022/05/04 02:27:05;;;;;;;8.05;3.08;;;7.80;99.90;;;;;;5031535;28;20125;-63
2022/05/04 02:29:31;;;;;;;6.38;3.10;;;7.80;99.90;;;;;;5032040;28;20379;-62
2022/05/04 02:31:58;;;;;;;10.00;3.55;;;7.80;99.90;;;;;;5030458;28;20137;-63
2022/05/04 02:34:25;;;;;;;14.20;3.72;;;7.80;99.90;;;;;;5030764;28;20088;-65
2022/05/04 02:39:34;;;;;;;7.50;3.63;;;7.80;99.90;;;;;;5030096;28;20513;-63
2022/05/04 02:42:00;;;;;;;12.48;4.20;;;7.80;99.90;;;;;;5030161;28;20085;-64
2022/05/04 02:44:26;;;;;;;6.13;3.53;;;7.80;99.90;;;;;;5029136;28;20045;-63
2022/05/04 02:46:52;;;;;;;7.05;3.30;;;7.70;99.90;;;;;;5029664;28;20094;-63
2022/05/04 02:49:18;;;;;;;7.43;3.15;;;7.80;99.90;;;;;;5030474;28;20053;-63
2022/05/04 02:51:44;;;;;;;6.65;3.65;;;7.70;99.90;;;;;;5030459;28;20050;-64
2022/05/04 02:54:09;;;;;;;8.77;3.67;;;7.80;99.90;;;;;;5029719;28;20053;-64
2022/05/04 02:56:35;;;;;;;9.77;3.67;;;7.80;99.90;;;;;;5013748;28;20398;-63
2022/05/04 02:59:01;;;;;;;8.50;3.22;;;7.80;99.90;;;;;;5029917;28;20171;-66
2022/05/04 03:04:10;;;;;;;11.32;3.65;;;7.80;99.90;;;;;;5034442;28;20054;-62
2022/05/04 03:06:39;;;;;;;8.25;3.95;;;7.70;99.90;;;;;;5031518;28;20053;-63
2022/05/04 03:09:06;;;;;;;7.70;3.35;;;7.70;99.90;;;;;;5033592;28;20045;-64
2022/05/04 03:14:18;;;;;;;9.90;3.88;;;7.70;99.90;;;;;;5035164;28;20436;-63
2022/05/04 03:16:44;;;;;;;7.40;3.40;;;7.70;99.90;;;;;;5033967;28;20128;-64
2022/05/04 03:19:10;;;;;;;12.23;3.90;;;7.80;99.90;;;;;;5034534;28;20120;-63
2022/05/04 03:21:36;;;;;;;7.88;3.85;;;7.80;99.90;;;;;;5032991;28;20172;-62
2022/05/04 03:24:02;;;;;;;6.65;3.30;;;7.70;99.90;;;;;;5034233;28;20053;-62
2022/05/04 03:26:27;;;;;;;8.75;3.53;;;7.70;99.90;;;;;;5035006;28;20052;-63
2022/05/04 03:28:53;;;;;;;8.68;3.10;;;7.60;99.90;;;;;;5034008;28;20490;-65
2022/05/04 03:31:19;;;;;;;6.22;3.30;;;7.60;99.90;;;;;;5016453;28;20064;-63
2022/05/04 03:33:45;;;;;;;8.95;3.70;;;7.60;99.90;;;;;;5031134;28;20127;-64
2022/05/04 03:36:11;;;;;;;7.93;3.60;;;7.60;99.90;;;;;;5033740;28;20065;-65
2022/05/04 03:38:37;;;;;;;8.15;4.35;;;7.60;99.90;;;;;;5033033;28;20096;-62
2022/05/04 03:41:02;;;;;;;7.70;4.15;;;7.60;99.90;;;;;;5033361;28;20072;-63
2022/05/04 03:43:28;;;;;;;8.10;3.47;;;7.50;99.90;;;;;;5033459;28;20073;-65
2022/05/04 03:45:54;;;;;;;11.38;4.15;;;7.60;99.90;;;;;;5032312;28;20053;-62
2022/05/04 03:48:20;;;;;;;5.53;3.00;;;7.50;99.90;;;;;;5033140;28;20383;-63
2022/05/04 03:50:46;;;;;;;10.73;3.65;;;7.50;99.90;;;;;;5034455;28;20103;-63
2022/05/04 03:53:13;;;;;;;5.07;2.95;;;7.50;99.90;;;;;;5033285;28;20057;-62
2022/05/04 03:55:38;;;;;;;7.85;3.38;;;7.50;99.90;;;;;;5032431;28;20068;-62
2022/05/04 03:58:04;;;;;;;10.20;3.63;;;7.50;99.90;;;;;;5031856;28;20409;-65
2022/05/04 04:00:30;;;;;;;10.55;3.85;;;7.50;99.90;;;;;;5033007;28;20060;-63
2022/05/04 04:02:55;;;;;;;7.88;3.08;;;7.50;99.90;;;;;;5030734;28;20068;-63
2022/05/04 04:05:22;;;;;;;7.20;3.83;;;7.50;99.90;;;;;;5032679;28;20037;-62
2022/05/04 04:07:48;;;;;;;9.95;3.50;;;7.50;99.90;;;;;;5033717;28;20045;-64
2022/05/04 04:10:14;;;;;;;8.52;3.95;;;7.50;99.90;;;;;;5030871;28;20049;-65
2022/05/04 04:12:39;;;;;;;7.35;3.75;;;7.50;99.90;;;;;;5031919;28;20076;-63
2022/05/04 04:15:06;;;;;;;7.75;3.47;;;7.80;99.90;;;;;;5032489;28;20045;-62
2022/05/04 04:17:31;;;;;;;8.75;3.67;;;7.50;99.90;;;;;;5031750;28;20080;-64
2022/05/04 04:22:41;;;;;;;8.98;4.13;;;7.50;99.90;;;;;;5032768;28;20053;-63
2022/05/04 04:25:07;;;;;;;8.48;3.53;;;7.50;99.90;;;;;;5033274;28;20053;-63
2022/05/04 04:27:34;;;;;;;8.52;4.00;;;7.60;99.90;;;;;;5033716;28;20049;-63
2022/05/04 04:30:00;;;;;;;13.02;3.78;;;7.60;99.90;;;;;;5034460;28;20080;-64
2022/05/04 04:32:26;;;;;;;7.95;3.63;;;7.50;99.90;;;;;;5032589;28;20105;-63
2022/05/04 04:34:52;;;;;;;11.77;4.40;;;7.50;99.90;;;;;;5032019;28;20128;-63
2022/05/04 04:37:17;;;;;;;10.38;3.85;;;7.50;99.90;;;;;;5032915;28;20536;-63
2022/05/04 04:39:43;;;;;;;7.90;3.80;;;7.50;99.90;;;;;;5031731;28;20056;-62
2022/05/04 04:42:08;;;;;;;8.55;3.55;;;7.60;99.90;;;;;;5032050;28;20053;-64
2022/05/04 04:44:34;;;;;;;7.68;3.75;;;7.60;99.90;;;;;;5032166;28;20107;-64
2022/05/04 04:46:59;;;;;;;7.57;3.58;;;7.60;99.90;;;;;;5031211;28;20098;-64
2022/05/04 04:49:25;;;;;;;10.05;3.35;;;7.60;99.90;;;;;;5031796;28;20053;-63
2022/05/04 04:51:51;;;;;;;7.50;3.58;;;7.70;99.90;;;;;;5030255;28;20071;-64
2022/05/04 04:54:17;;;;;;;12.40;3.85;;;7.70;99.90;;;;;;5034574;28;20057;-65
2022/05/04 04:56:42;;;;;;;7.95;3.47;;;7.70;99.90;;;;;;5028509;28;20052;-63
2022/05/04 04:59:08;;;;;;;12.45;4.35;;;7.80;99.90;;;;;;5047428;28;20140;-64
2022/05/04 05:01:34;;;;;;;13.63;4.40;;;7.70;99.90;;;;;;5029823;28;20064;-63
2022/05/04 05:04:00;;;;;;;11.45;3.33;;;7.80;99.90;;;;;;5030508;28;21916;-63
2022/05/04 05:06:25;;;;;;;7.70;3.22;;;7.80;99.90;;;;;;5029955;28;20091;-64
2022/05/04 05:08:51;;;;;;;8.90;3.50;;;7.90;99.90;;;;;;5032326;28;20068;-63
2022/05/04 05:11:17;;;;;;;6.63;3.00;;;7.90;99.90;;;;;;5028858;28;20064;-64
2022/05/04 05:16:27;;;;;;;10.00;3.70;;;7.90;99.90;;;;;;5013947;28;20173;-63
2022/05/04 05:18:52;;;;;;;8.55;4.15;;;8.00;99.90;;;;;;5029093;28;20165;-64
2022/05/04 05:21:18;;;;;;;8.48;3.30;;;8.00;99.90;;;;;;5031417;28;20061;-63
2022/05/04 05:23:45;;;;;;;10.15;4.25;;;8.00;99.90;;;;;;5031196;28;20054;-64
2022/05/04 05:26:11;;;;;;;10.20;3.70;;;8.10;99.90;;;;;;5028845;28;20072;-64
2022/05/04 05:28:36;;;;;;;10.77;3.88;;;8.10;99.90;;;;;;5029329;28;21586;-63
2022/05/04 05:31:03;;;;;;;11.20;3.30;;;8.20;99.90;;;;;;5030555;28;20045;-63
2022/05/04 05:33:28;;;;;;;8.10;3.40;;;8.20;99.90;;;;;;5032025;28;20056;-62
2022/05/04 05:35:54;;;;;;;10.32;3.33;;;8.30;99.90;;;;;;5027372;28;20057;-65
2022/05/04 05:38:20;;;;;;;8.13;2.97;;;8.30;99.90;;;;;;5030287;28;20338;-63
2022/05/04 05:40:47;;;;;;;6.10;3.20;;;8.30;99.90;;;;;;5033450;28;20128;-64
2022/05/04 05:43:12;;;;;;;9.13;3.83;;;8.40;99.90;;;;;;5031824;28;20521;-64
2022/05/04 05:45:38;;;;;;;12.02;3.72;;;8.40;99.90;;;;;;5031792;28;20053;-64
2022/05/04 05:48:04;;;;;;;7.38;3.75;;;8.40;99.90;;;;;;5032543;28;20053;-64
2022/05/04 05:50:30;;;;;;;10.32;3.60;;;8.50;99.90;;;;;;5032357;28;20493;-63
2022/05/04 05:52:56;;;;;;;6.57;3.45;;;8.60;99.90;;;;;;5027083;28;20128;-64
2022/05/04 05:55:22;;;;;;;8.70;3.40;;;8.70;99.90;;;;;;5030810;28;20505;-63
2022/05/04 05:57:47;;;;;;;8.65;4.07;;;8.70;99.90;;;;;;5031570;28;20049;-64
2022/05/04 06:00:14;;;;;;;12.88;3.38;;;8.80;99.90;;;;;;5029974;28;20120;-64
2022/05/04 06:02:40;;;;;;;6.57;3.58;;;8.80;99.90;;;;;;5030334;28;20110;-66
2022/05/04 06:05:05;;;;;;;10.75;3.80;;;8.90;99.90;;;;;;5030896;28;20049;-64
2022/05/04 06:07:31;;;;;;;6.97;3.15;;;8.90;99.90;;;;;;5028966;28;20394;-65
2022/05/04 06:09:56;;;;;;;12.85;3.47;;;9.00;99.90;;;;;;5030179;28;20115;-65
2022/05/04 06:12:22;;;;;;;7.57;3.03;;;9.00;99.90;;;;;;5031483;28;20123;-66
2022/05/04 06:14:48;;;;;;;9.75;3.45;;;9.10;99.90;;;;;;5030707;28;20497;-64
2022/05/04 06:17:14;;;;;;;8.40;3.33;;;9.10;99.90;;;;;;5031960;28;20054;-64
2022/05/04 06:19:39;;;;;;;5.63;3.05;;;9.10;99.90;;;;;;5031543;28;20099;-64
2022/05/04 06:22:05;;;;;;;9.25;2.72;;;9.10;99.90;;;;;;5031253;28;20159;-63
2022/05/04 06:24:30;;;;;;;8.05;2.80;;;9.20;99.90;;;;;;5030911;28;20132;-64
2022/05/04 06:26:56;;;;;;;6.78;3.35;;;9.20;99.90;;;;;;5030950;28;20396;-63
2022/05/04 06:34:06;;;;;;;10.82;2.83;;;9.30;99.90;;;;;;5030872;28;20134;-63
2022/05/04 06:34:51;;;;;;;9.35;3.15;;;9.40;99.90;;;;;;5031010;28;20054;-63
2022/05/04 06:37:17;;;;;;;6.80;2.90;;;9.60;99.90;;;;;;5032902;28;20045;-63
2022/05/04 06:39:42;;;;;;;9.05;3.15;;;9.60;99.90;;;;;;5033009;28;20065;-64
2022/05/04 06:42:08;;;;;;;7.75;2.70;;;9.60;99.90;;;;;;5035013;28;20072;-64
2022/05/04 06:44:37;;;;;;;8.50;2.58;;;9.70;99.90;;;;;;5035338;28;20057;-64
2022/05/04 06:47:03;;;;;;;6.35;2.55;;;9.80;99.90;;;;;;5034812;28;20049;-64
2022/05/04 06:49:29;;;;;;;9.88;2.50;;;9.80;99.90;;;;;;5035027;28;20061;-63
2022/05/04 06:51:54;;;;;;;5.20;2.25;;;9.80;99.90;;;;;;5031579;28;20049;-62
2022/05/04 06:54:20;;;;;;;8.65;3.00;;;9.80;99.90;;;;;;5021726;28;20058;-64
2022/05/04 06:56:45;;;;;;;10.57;3.17;;;10.00;99.90;;;;;;5017980;28;21906;-64
2022/05/04 06:59:11;;;;;;;6.40;2.47;;;10.10;99.90;;;;;;5034888;28;20482;-64
2022/05/04 07:01:37;;;;;;;8.23;2.42;;;10.10;99.90;;;;;;5034264;28;20057;-64
2022/05/04 07:04:02;;;;;;;5.72;2.25;;;10.20;99.90;;;;;;5034640;28;20111;-64
2022/05/04 07:06:28;;;;;;;7.00;3.30;;;10.30;99.90;;;;;;5032257;28;20064;-64
2022/05/04 07:08:53;;;;;;;6.00;2.58;;;10.40;99.90;;;;;;5032818;28;20309;-63
2022/05/04 07:11:19;;;;;;;9.45;2.50;;;10.50;99.90;;;;;;5031483;28;20057;-63
2022/05/04 07:13:44;;;;;;;7.82;2.67;;;10.50;99.90;;;;;;5016670;28;20060;-63
2022/05/04 07:16:11;;;;;;;9.38;2.90;;;10.40;99.90;;;;;;5033941;28;20053;-63
2022/05/04 07:18:36;;;;;;;6.45;2.22;;;10.40;99.90;;;;;;5033552;28;20057;-64
2022/05/04 07:21:02;;;;;;;8.57;2.78;;;10.50;99.90;;;;;;5034752;28;20486;-63
2022/05/04 07:23:27;;;;;;;5.57;2.50;;;10.40;99.90;;;;;;5035357;28;20053;-63
2022/05/04 07:25:54;;;;;;;7.32;3.00;;;10.50;99.90;;;;;;5033643;28;20088;-63
2022/05/04 07:28:20;;;;;;;6.07;3.13;;;10.40;99.90;;;;;;5034502;28;20057;-64
2022/05/04 07:30:45;;;;;;;6.63;2.75;;;10.40;99.90;;;;;;5033494;28;20390;-63
2022/05/04 07:33:11;;;;;;;7.57;2.33;;;10.50;99.90;;;;;;5033995;28;20060;-63
2022/05/04 07:35:37;;;;;;;11.68;3.22;;;10.70;99.90;;;;;;5034029;28;20053;-63
2022/05/04 07:38:03;;;;;;;7.47;2.63;;;10.80;99.90;;;;;;5034002;28;20056;-63
2022/05/04 07:43:13;;;;;;;7.47;2.83;;;11.20;99.90;;;;;;5034149;28;20062;-63
2022/05/04 07:45:39;;;;;;;6.97;2.53;;;11.20;97.90;;;;;;5033679;28;20512;-63
2022/05/04 07:48:04;;;;;;;6.72;2.22;;;11.30;96.00;;;;;;5033275;28;20093;-65
2022/05/04 07:50:30;;;;;;;4.15;2.75;;;11.20;93.50;;;;;;5033383;28;20041;-64
2022/05/04 07:52:55;;;;;;;5.63;2.33;;;11.30;95.60;;;;;;5033766;28;20128;-63
2022/05/04 07:55:21;;;;;;;5.88;2.53;;;11.30;94.90;;;;;;5033395;28;20088;-63
2022/05/04 07:57:48;;;;;;;10.50;2.67;;;11.50;94.60;;;;;;5033551;28;20056;-63
2022/05/04 08:05:43;;;;;;;5.28;2.30;;;11.60;92.70;;;;;;5033376;28;20054;-63
2022/05/04 08:08:09;;;;;;;7.28;2.35;;;11.60;91.00;;;;;;5033690;28;20356;-64
2022/05/04 08:10:35;;;;;;;6.28;2.60;;;11.50;88.30;;;;;;5032450;28;20111;-64
2022/05/04 08:13:00;;;;;;;5.30;2.65;;;11.30;90.30;;;;;;5035002;28;20056;-64
2022/05/04 08:15:26;;;;;;;7.45;2.90;;;11.10;92.50;;;;;;5033236;28;20041;-63
2022/05/04 08:17:52;;;;;;;6.47;2.50;;;11.30;94.80;;;;;;5033037;28;20064;-64
2022/05/04 08:20:17;;;;;;;7.00;2.53;;;11.50;95.90;;;;;;5033353;28;20045;-64
2022/05/04 08:22:43;;;;;;;6.22;2.53;;;11.70;91.40;;;;;;5033461;28;20083;-64
2022/05/04 08:25:10;;;;;;;9.25;2.50;;;11.90;90.70;;;;;;5032763;28;20390;-64
2022/05/04 08:27:35;;;;;;;9.18;2.20;;;12.10;85.00;;;;;;5035044;28;20076;-63
2022/05/04 08:30:01;;;;;;;10.25;2.58;;;12.20;82.50;;;;;;5033371;28;20061;-64
2022/05/04 08:32:29;;;;;;;5.80;2.58;;;12.30;81.30;;;;;;5032917;28;20401;-64
2022/05/04 08:34:56;;;;;;;5.85;2.53;;;12.20;75.90;;;;;;5034510;28;20069;-63
2022/05/04 08:37:21;;;;;;;5.47;2.70;;;12.20;77.50;;;;;;5032828;28;20057;-63
2022/05/04 08:39:47;;;;;;;7.30;2.55;;;12.30;78.90;;;;;;5032918;28;20386;-63
2022/05/04 08:42:13;;;;;;;11.02;2.45;;;12.10;75.60;;;;;;5032271;28;20049;-63
2022/05/04 08:44:42;;;;;;;9.63;2.60;;;12.10;78.50;;;;;;5032862;28;20049;-64
2022/05/04 08:47:12;;;;;;;6.63;2.72;;;12.10;79.30;;;;;;5032519;28;20393;-63
2022/05/04 08:49:38;;;;;;;7.72;2.75;;;12.10;77.20;;;;;;5032749;28;20057;-64
2022/05/04 08:52:06;;;;;;;9.55;3.13;;;12.00;81.20;;;;;;5032779;28;20115;-64
2022/05/04 08:54:31;;;;;;;9.13;2.88;;;11.90;79.10;;;;;;5033808;28;20045;-63
2022/05/04 08:56:58;;;;;;;5.68;3.10;;;12.10;86.70;;;;;;5033768;28;20448;-63
2022/05/04 08:59:24;;;;;;;8.50;2.88;;;12.20;81.40;;;;;;5032675;28;20057;-63
2022/05/04 09:01:49;;;;;;;5.35;2.42;;;12.30;76.50;;;;;;5032501;28;20132;-63
2022/05/04 09:04:15;;;;;;;6.85;2.78;;;12.50;76.50;;;;;;5032529;28;20119;-63
2022/05/04 09:06:44;;;;;;;9.85;2.90;;;12.60;74.80;;;;;;5032409;28;20061;-64
2022/05/04 09:09:10;;;;;;;4.72;2.35;;;12.60;75.80;;;;;;5032214;28;20501;-63
2022/05/04 09:11:41;;;;;;;5.97;2.70;;;12.60;79.60;;;;;;5031655;28;20053;-62
2022/05/04 09:14:15;;;;;;;8.02;2.70;;;12.80;76.30;;;;;;5033653;28;20056;-64
2022/05/04 09:16:42;;;;;;;8.23;2.83;;;12.90;71.50;;;;;;5032070;28;20124;-63
2022/05/04 09:19:13;;;;;;;4.38;2.60;;;13.00;71.70;;;;;;5032684;28;20060;-64
2022/05/04 09:21:39;;;;;;;6.22;2.53;;;13.10;69.00;;;;;;5033500;28;20045;-63
2022/05/04 09:24:05;;;;;;;4.85;2.60;;;13.20;68.40;;;;;;5032379;28;20077;-63
2022/05/04 09:26:32;;;;;;;6.55;2.22;;;13.30;68.10;;;;;;5031420;28;20049;-64
2022/05/04 09:29:00;;;;;;;6.25;2.70;;;13.30;67.90;;;;;;5032286;28;20478;-64
2022/05/04 09:31:30;;;;;;;7.50;3.05;;;13.30;67.00;;;;;;5031123;28;20123;-64
2022/05/04 09:34:07;;;;;;;7.53;2.55;;;13.30;66.70;;;;;;5032179;28;20136;-64
2022/05/04 09:36:36;;;;;;;6.65;2.40;;;13.20;66.90;;;;;;5031537;28;20049;-64
2022/05/04 09:44:55;;;;;;;6.97;2.67;;;12.70;70.50;;;;;;5031633;28;20049;-63
2022/05/04 09:47:21;;;;;;;7.75;2.53;;;12.80;68.80;;;;;;5030994;28;20049;-64
2022/05/04 09:49:48;;;;;;;9.73;2.42;;;12.80;68.20;;;;;;5015360;28;20057;-63
2022/05/04 09:52:20;;;;;;;8.07;2.90;;;12.90;68.50;;;;;;5032987;28;20057;-65
2022/05/04 09:54:46;;;;;;;5.03;2.40;;;13.00;68.60;;;;;;5031247;28;20049;-63
2022/05/04 09:57:12;;;;;;;5.95;2.20;;;13.20;68.00;;;;;;5031588;28;20049;-65
2022/05/04 09:59:38;;;;;;;6.03;2.67;;;13.30;67.30;;;;;;5032643;28;20053;-64
2022/05/04 10:02:07;;;;;;;4.80;2.83;;;13.30;66.40;;;;;;5031203;28;20061;-63
2022/05/04 10:04:35;;;;;;;4.53;2.13;;;13.40;66.00;;;;;;5031809;28;20057;-63
2022/05/04 10:07:03;;;;;;;5.63;2.75;;;13.40;65.40;;;;;;5048281;28;20133;-63
2022/05/04 10:09:29;;;;;;;7.07;2.63;;;13.50;66.10;;;;;;5030876;28;20232;-64
2022/05/04 10:11:57;;;;;;;7.78;2.72;;;13.50;65.60;;;;;;5032293;28;20107;-64
2022/05/04 10:14:24;;;;;;;7.68;2.50;;;13.50;65.30;;;;;;5031963;28;20056;-64
2022/05/04 10:17:01;;;;;;;6.72;2.75;;;13.60;64.90;;;;;;5031080;28;20045;-64
2022/05/04 10:19:45;;;;;;;4.97;2.40;;;13.80;66.30;;;;;;5032653;28;20493;-64
2022/05/04 10:22:16;;;;;;;5.68;2.40;;;13.80;63.70;;;;;;5032721;28;20468;-64
2022/05/04 10:24:42;;;;;;;8.35;2.47;;;13.80;64.40;;;;;;5031123;28;20063;-64
2022/05/04 10:27:21;;;;;;;5.55;2.30;;;13.90;64.00;;;;;;5031390;28;20103;-63
2022/05/04 10:32:45;;;;;;;6.97;2.30;;;13.90;63.20;;;;;;5032223;28;20069;-63
2022/05/04 10:35:26;;;;;;;7.30;2.53;;;14.00;64.10;;;;;;5031383;28;20049;-64
2022/05/04 10:37:58;;;;;;;9.18;2.70;;;13.90;63.30;;;;;;5031361;28;20057;-65
2022/05/04 10:40:47;;;;;;;5.97;2.50;;;14.00;63.00;;;;;;5031078;28;20056;-64
2022/05/04 10:43:17;;;;;;;6.05;2.20;;;14.10;63.20;;;;;;5032328;28;20123;-62
2022/05/04 10:45:45;;;;;;;9.02;3.00;;;14.10;63.60;;;;;;5030464;28;20053;-64
2022/05/04 10:48:20;;;;;;;6.75;2.78;;;14.30;63.50;;;;;;5031046;28;20046;-64
2022/05/04 10:50:57;;;;;;;6.32;2.60;;;14.40;61.80;;;;;;5030511;28;20061;-62
2022/05/04 10:53:27;;;;;;;7.45;2.60;;;14.10;62.30;;;;;;5029950;28;20050;-65
2022/05/04 10:56:18;;;;;;;5.50;2.47;;;14.00;62.90;;;;;;5031488;28;20050;-64
2022/05/04 10:58:50;;;;;;;5.05;2.30;;;14.10;65.90;;;;;;5032822;28;20133;-64
2022/05/04 11:01:43;;;;;;;7.32;2.67;;;14.30;63.90;;;;;;5030280;28;20053;-65
2022/05/04 11:04:14;;;;;;;5.88;2.50;;;14.30;63.00;;;;;;5027377;28;20060;-63
2022/05/04 11:06:58;;;;;;;6.33;2.43;;;14.40;63.10;;;;;;5031797;28;20088;-64
2022/05/04 11:09:25;;;;;;;4.15;2.40;;;14.60;62.80;;;;;;5012904;28;20296;-63
2022/05/04 11:11:52;;;;;;;6.30;2.50;;;14.60;62.50;;;;;;5012827;28;20398;-62
2022/05/04 11:14:22;;;;;;;8.18;2.63;;;14.40;62.00;;;;;;5030366;28;20049;-64
2022/05/04 11:16:51;;;;;;;5.45;2.35;;;14.40;63.00;;;;;;5030613;28;20045;-64
2022/05/04 11:19:17;;;;;;;5.90;2.33;;;14.20;62.60;;;;;;5030785;28;20065;-63
2022/05/04 11:21:43;;;;;;;8.10;2.78;;;14.30;62.60;;;;;;5030868;28;20156;-63
2022/05/04 11:24:11;;;;;;;6.57;3.22;;;14.40;62.70;;;;;;5032518;28;20513;-64
2022/05/04 11:26:42;;;;;;;5.18;2.50;;;14.30;62.30;;;;;;5032681;28;20072;-63
2022/05/04 11:29:09;;;;;;;7.20;2.78;;;14.40;62.90;;;;;;5032856;28;20049;-64
2022/05/04 11:31:35;;;;;;;6.90;2.60;;;14.50;62.40;;;;;;5034838;28;20073;-64
2022/05/04 11:34:01;;;;;;;8.93;2.78;;;14.60;62.50;;;;;;5034538;28;20402;-64
2022/05/04 11:36:27;;;;;;;7.90;2.40;;;14.80;62.00;;;;;;5035536;28;20063;-63
2022/05/04 11:38:53;;;;;;;7.35;2.70;;;14.80;61.40;;;;;;5029524;28;20100;-63
2022/05/04 11:41:19;;;;;;;6.63;2.80;;;14.90;61.40;;;;;;5031105;28;20441;-63
2022/05/04 11:43:47;;;;;;;5.70;2.45;;;15.00;60.90;;;;;;5034867;28;20064;-64
2022/05/04 11:46:13;;;;;;;6.57;2.50;;;14.80;60.80;;;;;;5034656;28;20141;-63
2022/05/04 11:48:39;;;;;;;6.65;2.60;;;14.80;60.80;;;;;;5034239;28;20502;-63
2022/05/04 11:51:05;;;;;;;6.10;2.53;;;14.80;60.40;;;;;;5033857;28;20080;-63
2022/05/04 11:53:32;;;;;;;8.38;2.70;;;14.80;60.30;;;;;;5033878;28;20099;-63
2022/05/04 11:55:59;;;;;;;5.57;2.35;;;14.90;60.20;;;;;;5034043;28;20047;-65
2022/05/04 11:58:28;;;;;;;7.47;2.80;;;15.00;60.00;;;;;;5033847;28;20128;-64
2022/05/04 12:00:54;;;;;;;5.07;2.35;;;15.10;59.60;;;;;;5034319;28;20119;-63
2022/05/04 12:03:21;;;;;;;5.82;2.97;;;15.00;59.10;;;;;;5033176;28;20042;-63
2022/05/04 12:05:48;;;;;;;3.58;2.33;;;15.00;59.30;;;;;;5034529;28;20546;-62
2022/05/04 12:08:17;;;;;;;5.95;2.35;;;15.00;59.80;;;;;;5032837;28;20081;-64
2022/05/04 12:10:42;;;;;;;6.63;2.55;;;14.90;59.70;;;;;;5032831;28;20046;-66
2022/05/04 12:13:08;;;;;;;4.80;2.67;;;15.00;59.30;;;;;;5033837;28;20108;-65
2022/05/04 12:15:34;;;;;;;7.22;2.80;;;15.20;59.50;;;;;;5032940;28;20065;-64
2022/05/04 12:18:05;;;;;;;8.02;2.80;;;15.20;59.70;;;;;;5033250;28;20056;-65
2022/05/04 12:20:35;;;;;;;4.95;2.60;;;15.10;59.40;;;;;;5034423;28;20103;-64
2022/05/04 12:23:02;;;;;;;5.53;2.88;;;15.00;59.40;;;;;;5035007;28;20038;-62
2022/05/04 12:25:28;;;;;;;5.68;2.90;;;14.70;59.20;;;;;;5033303;28;20069;-62
2022/05/04 12:27:56;;;;;;;6.28;2.92;;;14.80;59.70;;;;;;5033408;28;20220;-63
2022/05/04 12:33:09;;;;;;;3.72;2.50;;;14.80;60.50;;;;;;5030217;28;20081;-65
2022/05/04 12:35:45;;;;;;;5.50;2.70;;;15.00;60.20;;;;;;5033945;28;20061;-63
2022/05/04 12:38:15;;;;;;;5.85;2.45;;;15.30;61.80;;;;;;5032467;28;20053;-64
2022/05/04 12:40:41;;;;;;;7.32;3.03;;;15.40;59.50;;;;;;5034002;28;20494;-63
2022/05/04 12:43:07;;;;;;;5.45;2.72;;;15.70;59.00;;;;;;5033075;28;20049;-63
2022/05/04 12:45:34;;;;;;;7.38;2.33;;;15.60;58.10;;;;;;5030976;28;20045;-64
2022/05/04 12:48:00;;;;;;;6.03;2.90;;;15.60;58.30;;;;;;5032852;28;20057;-62
2022/05/04 12:50:27;;;;;;;7.28;2.72;;;15.50;58.30;;;;;;5032023;28;20049;-62
2022/05/04 12:52:54;;;;;;;6.40;2.78;;;15.70;58.60;;;;;;5032797;28;20092;-64
2022/05/04 12:55:20;;;;;;;6.25;2.25;;;15.80;58.50;;;;;;5034567;28;20053;-62
2022/05/04 12:57:46;;;;;;;10.38;3.70;;;15.90;58.50;;;;;;5032671;28;20045;-63
2022/05/04 13:00:12;;;;;;;6.28;2.88;;;15.70;58.00;;;;;;5030219;28;20136;-62
2022/05/04 13:02:42;;;;;;;8.40;2.85;;;15.80;58.60;;;;;;5015103;28;20045;-63
2022/05/04 13:05:11;;;;;;;4.40;2.83;;;15.90;59.10;;;;;;5033292;28;20056;-63
2022/05/04 13:07:37;;;;;;;3.45;2.60;;;16.10;58.60;;;;;;5032227;28;20452;-65
2022/05/04 13:10:03;;;;;;;8.35;3.08;;;16.20;58.30;;;;;;5033844;28;20125;-63
2022/05/04 13:12:29;;;;;;;6.95;3.17;;;16.20;57.80;;;;;;5033532;28;20108;-64
2022/05/04 13:14:55;;;;;;;7.25;3.28;;;16.20;58.50;;;;;;5032133;28;20045;-64
2022/05/04 13:17:20;;;;;;;6.35;2.75;;;16.20;58.10;;;;;;5031601;28;20046;-65
2022/05/04 13:19:47;;;;;;;10.55;2.97;;;16.20;58.10;;;;;;5031810;28;20057;-63
2022/05/04 13:22:13;;;;;;;6.65;3.00;;;16.20;57.80;;;;;;5032481;28;20053;-64
2022/05/04 13:24:38;;;;;;;7.70;3.17;;;16.30;57.80;;;;;;5031551;28;20049;-65